SARL/AOL METAR and TAF weather

Enter ICAO airport designator
Station Type Date Time Source
SARL METAR 2022/06/26 08:00 UTC NOAA

SARL 260800Z 14013KT CAVOK 09/07 Q1024


Station Type Date Time Source
SARL Decoded METAR 2022/06/26 08:00 UTC NOAA

Paso De Los Libres Aerodrome, Argentina (SARL) 29-41S 057-09W 70M
Jun 26, 2022 - 04:00 AM EDT / 2022.06.26 0800 UTC
Wind: from the SE (140 degrees) at 15 MPH (13 KT):0
Visibility: greater than 7 mile(s):0
Temperature: 48 F (9 C)
Dew Point: 44 F (7 C)
Relative Humidity: 87%
Pressure (altimeter): 30.24 in. Hg (1024 hPa)
ob: SARL 260800Z 14013KT CAVOK 09/07 Q1024
cycle: 8

Station Type Date Time Source
SARL TAF UTC NOAA

Error!

Example: see airport list